»·PEaware :: N772SC CYVR-CYZT

N772SC :: CYVR-CYZT

FLIGHT INFORMATION

Flight Status: Arrived
Operator: Privately registered:
United States
More flights under this callsign
Pilot: Anonymous 15096 (15096)
Aircraft: CESSNA 208 CARAVAN
(C208)
More flights by this aircraft type
Origin: CYVR Vancouver Intl
Canada
Destination: CYZT Port Hardy
Canada
More flights between these airports :: More routes between these airports
Route: DCT
File this flight plan on PilotEdge
Remarks:
Altitude:
(Current/Filed)
6,000ft
Speed:
(Current/Filed)
140kts
Departed: 25-May-17 09:47 AM
Arrived: 25-May-17 11:08 AM
Distance/Time
Traveled:
185nm/1:21
Distance/Time
To Go:
Arrived

Flight Plot

Page will automatically refresh every two minutes.

Flight plan parsing failed; only flown route is shown


Map Options




Map Legend


Flown Route
Filed Route
Departure Airport
Arrival Airport
Navaid (VOR, NDB)
Fix

Horizontal Profiles

Position Reports

Time Latitude Longitude Heading Altitude Ground
Speed
25-May-17 09:43 49.187338 -123.156120 358 9ft 0kts
25-May-17 09:44 49.187338 -123.156120 358 9ft 0kts
25-May-17 09:45 49.187338 -123.156120 358 9ft 0kts
25-May-17 09:46 49.187338 -123.156119 358 9ft 0kts
25-May-17 09:47 49.186836 -123.159032 259 9ft 24kts
25-May-17 09:48 49.185866 -123.161993 192 12ft 0kts
25-May-17 09:49 49.185536 -123.167068 280 12ft 70kts
25-May-17 09:50 49.201340 -123.202010 306 922ft 137kts
25-May-17 09:51 49.224889 -123.250686 306 1621ft 146kts
25-May-17 09:52 49.249399 -123.302241 301 2005ft 159kts
25-May-17 09:53 49.275460 -123.357910 301 2004ft 163kts
25-May-17 09:54 49.303378 -123.412440 304 2005ft 163kts
25-May-17 09:55 49.320732 -123.475080 275 2009ft 164kts
25-May-17 09:56 49.321530 -123.542775 275 2011ft 161kts
25-May-17 09:57 49.322061 -123.608275 274 2011ft 164kts
25-May-17 09:58 49.326199 -123.676707 284 2016ft 162kts
25-May-17 09:59 49.335230 -123.744305 285 2011ft 161kts
25-May-17 10:00 49.344050 -123.811745 286 2014ft 163kts
25-May-17 10:01 49.352837 -123.879946 284 2011ft 163kts
25-May-17 10:02 49.365750 -123.944675 296 2016ft 161kts
25-May-17 10:03 49.387990 -124.003763 305 2016ft 159kts
25-May-17 10:04 49.405626 -124.065497 279 2015ft 161kts
25-May-17 10:05 49.409267 -124.133932 278 2013ft 158kts
25-May-17 10:06 49.414670 -124.201086 285 1999ft 158kts
25-May-17 10:07 49.425770 -124.265633 288 2001ft 156kts
25-May-17 10:08 49.438852 -124.328874 292 2003ft 155kts
25-May-17 10:09 49.459592 -124.386064 299 2004ft 155kts
25-May-17 10:10 49.480940 -124.443704 299 2003ft 155kts
25-May-17 10:11 49.503946 -124.499952 307 2004ft 155kts
25-May-17 10:12 49.531696 -124.550789 310 2003ft 155kts
25-May-17 10:13 49.559311 -124.602037 309 2006ft 155kts
25-May-17 10:14 49.586400 -124.652899 309 2010ft 155kts
25-May-17 10:15 49.613174 -124.704367 310 2014ft 155kts
25-May-17 10:16 49.640410 -124.756314 310 2018ft 156kts
25-May-17 10:17 49.670903 -124.802581 333 2023ft 155kts
25-May-17 10:18 49.709441 -124.832885 334 2022ft 156kts
25-May-17 10:19 49.748028 -124.863126 334 2022ft 156kts
25-May-17 10:20 49.779009 -124.909561 310 2021ft 158kts
25-May-17 10:21 49.806405 -124.962568 310 2018ft 157kts
25-May-17 10:22 49.833942 -125.014694 311 2015ft 156kts
25-May-17 10:23 49.861899 -125.066127 311 2010ft 156kts
25-May-17 10:24 49.890314 -125.116896 311 2007ft 157kts
25-May-17 10:25 49.919186 -125.167779 311 2004ft 157kts
25-May-17 10:26 49.951616 -125.212283 336 2006ft 159kts
25-May-17 10:27 49.992276 -125.239190 316 1995ft 158kts
25-May-17 10:28 50.023099 -125.284981 332 2004ft 159kts
25-May-17 10:29 50.059981 -125.314130 332 2005ft 159kts
25-May-17 10:30 50.101202 -125.336827 342 2004ft 159kts
25-May-17 10:31 50.142445 -125.356982 342 2004ft 159kts
25-May-17 10:32 50.185054 -125.375582 343 2004ft 159kts
25-May-17 10:33 50.228670 -125.388958 351 2003ft 161kts
25-May-17 10:34 50.272532 -125.397996 351 2004ft 160kts
25-May-17 10:35 50.311051 -125.430724 326 2004ft 159kts
25-May-17 10:36 50.342652 -125.478200 305 2001ft 157kts
25-May-17 10:37 50.361964 -125.539290 297 2004ft 157kts
25-May-17 10:38 50.371556 -125.600964 271 2004ft 157kts
25-May-17 10:39 50.367699 -125.668431 262 2004ft 157kts
25-May-17 10:40 50.370853 -125.735251 284 2004ft 157kts
25-May-17 10:41 50.382036 -125.801349 284 2004ft 157kts
25-May-17 10:42 50.393425 -125.867599 285 2004ft 157kts
25-May-17 10:43 50.405655 -125.933357 290 2005ft 157kts
25-May-17 10:44 50.422152 -125.996927 295 2004ft 157kts
25-May-17 10:45 50.448826 -126.052954 304 1836ft 162kts
25-May-17 10:46 50.471954 -126.113539 284 1610ft 163kts
25-May-17 10:47 50.476580 -126.182914 274 1523ft 158kts
25-May-17 10:48 50.480465 -126.252738 274 1310ft 163kts
25-May-17 10:49 50.484389 -126.323568 275 1045ft 162kts
25-May-17 10:50 50.487046 -126.393126 275 1049ft 158kts
25-May-17 10:51 50.490501 -126.461677 279 1056ft 158kts
25-May-17 10:52 50.496817 -126.530363 280 995ft 159kts
25-May-17 10:53 50.503143 -126.598210 280 995ft 158kts
25-May-17 10:54 50.514200 -126.663752 294 995ft 157kts
25-May-17 10:55 50.534752 -126.723936 305 995ft 157kts
25-May-17 10:56 50.552839 -126.785095 281 994ft 157kts
25-May-17 10:57 50.559266 -126.853680 280 994ft 158kts
25-May-17 10:58 50.573190 -126.918526 292 995ft 157kts
25-May-17 10:59 50.598021 -126.971595 327 995ft 156kts
25-May-17 11:00 50.621248 -127.025687 286 994ft 157kts
25-May-17 11:01 50.626141 -127.093198 257 993ft 155kts
25-May-17 11:02 50.614849 -127.153935 255 993ft 137kts
25-May-17 11:03 50.612243 -127.210216 275 995ft 126kts
25-May-17 11:04 50.614164 -127.262206 276 993ft 115kts
25-May-17 11:05 50.620099 -127.303445 289 997ft 89kts
25-May-17 11:06 50.632189 -127.335079 301 1043ft 77kts
25-May-17 11:07 50.644938 -127.361798 330 1063ft 75kts
25-May-17 11:08 50.662662 -127.370998 3 651ft 66kts
25-May-17 11:09 50.681322 -127.371556 1 70ft 66kts
25-May-17 11:10 50.684550 -127.374259 200 62ft 22kts
25-May-17 11:11 50.683730 -127.375611 138 68ft 0kts
25-May-17 11:12 50.683730 -127.375611 138 68ft 0kts

Navigation Log

Ident Type
Flight plan parsing failed, navigation log unavailable